sensor_id;sensor_type;location;lat;lon;timestamp;temperature;humidity
9984;DHT22;16737;50.932;6.780;2023-02-28T00:01:22;4.00;73.90
9984;DHT22;16737;50.932;6.780;2023-02-28T00:03:49;3.90;73.80
9984;DHT22;16737;50.932;6.780;2023-02-28T00:06:16;3.90;73.80
9984;DHT22;16737;50.932;6.780;2023-02-28T00:08:43;3.90;73.90
9984;DHT22;16737;50.932;6.780;2023-02-28T00:11:12;3.90;73.90
9984;DHT22;16737;50.932;6.780;2023-02-28T00:13:42;3.90;74.00
9984;DHT22;16737;50.932;6.780;2023-02-28T00:16:15;3.80;74.00
9984;DHT22;16737;50.932;6.780;2023-02-28T00:18:45;3.80;74.00
9984;DHT22;16737;50.932;6.780;2023-02-28T00:21:13;3.80;74.10
9984;DHT22;16737;50.932;6.780;2023-02-28T00:23:40;3.80;74.00
9984;DHT22;16737;50.932;6.780;2023-02-28T00:26:07;3.70;74.00
9984;DHT22;16737;50.932;6.780;2023-02-28T00:28:34;3.70;74.10
9984;DHT22;16737;50.932;6.780;2023-02-28T00:31:01;3.70;74.10
9984;DHT22;16737;50.932;6.780;2023-02-28T00:33:29;3.60;74.10
9984;DHT22;16737;50.932;6.780;2023-02-28T00:36:05;3.60;74.10
9984;DHT22;16737;50.932;6.780;2023-02-28T00:38:34;3.60;74.50
9984;DHT22;16737;50.932;6.780;2023-02-28T00:41:01;3.60;74.20
9984;DHT22;16737;50.932;6.780;2023-02-28T00:43:31;3.50;74.20
9984;DHT22;16737;50.932;6.780;2023-02-28T00:45:59;3.50;74.30
9984;DHT22;16737;50.932;6.780;2023-02-28T00:48:26;3.50;74.30
9984;DHT22;16737;50.932;6.780;2023-02-28T00:50:53;3.50;74.40
9984;DHT22;16737;50.932;6.780;2023-02-28T00:53:21;3.40;74.30
9984;DHT22;16737;50.932;6.780;2023-02-28T00:55:49;3.40;74.50
9984;DHT22;16737;50.932;6.780;2023-02-28T00:58:16;3.40;74.50
9984;DHT22;16737;50.932;6.780;2023-02-28T01:00:43;3.40;74.50
9984;DHT22;16737;50.932;6.780;2023-02-28T01:03:14;3.40;74.60
9984;DHT22;16737;50.932;6.780;2023-02-28T01:05:42;3.30;74.60
9984;DHT22;16737;50.932;6.780;2023-02-28T01:08:10;3.30;74.60
9984;DHT22;16737;50.932;6.780;2023-02-28T01:10:38;3.30;74.60
9984;DHT22;16737;50.932;6.780;2023-02-28T01:13:05;3.30;74.80
9984;DHT22;16737;50.932;6.780;2023-02-28T01:15:32;3.20;74.70
9984;DHT22;16737;50.932;6.780;2023-02-28T01:18:00;3.20;74.70
9984;DHT22;16737;50.932;6.780;2023-02-28T01:20:29;3.20;74.70
9984;DHT22;16737;50.932;6.780;2023-02-28T01:22:56;3.20;74.80
9984;DHT22;16737;50.932;6.780;2023-02-28T01:25:23;3.10;74.80
9984;DHT22;16737;50.932;6.780;2023-02-28T01:27:51;3.10;74.80
9984;DHT22;16737;50.932;6.780;2023-02-28T01:30:18;3.10;74.90
9984;DHT22;16737;50.932;6.780;2023-02-28T01:32:45;3.10;75.00
9984;DHT22;16737;50.932;6.780;2023-02-28T01:35:12;3.00;75.00
9984;DHT22;16737;50.932;6.780;2023-02-28T01:37:39;3.00;75.00
9984;DHT22;16737;50.932;6.780;2023-02-28T01:40:07;3.00;75.10
9984;DHT22;16737;50.932;6.780;2023-02-28T01:42:36;3.00;75.30
9984;DHT22;16737;50.932;6.780;2023-02-28T01:45:19;3.00;75.30
9984;DHT22;16737;50.932;6.780;2023-02-28T01:47:52;2.90;75.70
9984;DHT22;16737;50.932;6.780;2023-02-28T01:50:26;2.90;75.30
9984;DHT22;16737;50.932;6.780;2023-02-28T01:53:01;2.90;75.30
9984;DHT22;16737;50.932;6.780;2023-02-28T01:55:33;2.90;75.40
9984;DHT22;16737;50.932;6.780;2023-02-28T01:58:04;2.90;75.30
9984;DHT22;16737;50.932;6.780;2023-02-28T02:00:35;2.90;75.50
9984;DHT22;16737;50.932;6.780;2023-02-28T02:03:06;2.90;75.60
9984;DHT22;16737;50.932;6.780;2023-02-28T02:05:37;2.90;75.60
9984;DHT22;16737;50.932;6.780;2023-02-28T02:08:08;2.90;75.60
9984;DHT22;16737;50.932;6.780;2023-02-28T02:10:41;2.90;75.70
9984;DHT22;16737;50.932;6.780;2023-02-28T02:13:24;2.80;75.70
9984;DHT22;16737;50.932;6.780;2023-02-28T02:16:08;2.80;76.10
9984;DHT22;16737;50.932;6.780;2023-02-28T02:18:46;2.80;75.80
9984;DHT22;16737;50.932;6.780;2023-02-28T02:21:47;2.80;75.60
9984;DHT22;16737;50.932;6.780;2023-02-28T02:25:11;2.80;76.20
9984;DHT22;16737;50.932;6.780;2023-02-28T02:31:12;2.80;75.90
9984;DHT22;16737;50.932;6.780;2023-02-28T02:34:29;2.80;75.80
9984;DHT22;16737;50.932;6.780;2023-02-28T02:37:13;2.70;76.00
9984;DHT22;16737;50.932;6.780;2023-02-28T02:39:50;2.70;75.70
9984;DHT22;16737;50.932;6.780;2023-02-28T02:42:26;2.70;75.80
9984;DHT22;16737;50.932;6.780;2023-02-28T02:45:02;2.70;76.00
9984;DHT22;16737;50.932;6.780;2023-02-28T02:47:35;2.70;76.00
9984;DHT22;16737;50.932;6.780;2023-02-28T02:50:11;2.70;76.00
9984;DHT22;16737;50.932;6.780;2023-02-28T02:52:43;2.70;76.30
9984;DHT22;16737;50.932;6.780;2023-02-28T02:55:15;2.70;76.10
9984;DHT22;16737;50.932;6.780;2023-02-28T02:57:46;2.70;76.10
9984;DHT22;16737;50.932;6.780;2023-02-28T03:00:17;2.70;76.30
9984;DHT22;16737;50.932;6.780;2023-02-28T03:02:54;2.70;76.20
9984;DHT22;16737;50.932;6.780;2023-02-28T03:05:26;2.70;76.20
9984;DHT22;16737;50.932;6.780;2023-02-28T03:07:57;2.70;76.20
9984;DHT22;16737;50.932;6.780;2023-02-28T03:10:34;2.70;76.00
9984;DHT22;16737;50.932;6.780;2023-02-28T03:13:16;2.70;76.30
9984;DHT22;16737;50.932;6.780;2023-02-28T03:19:08;2.70;76.10
9984;DHT22;16737;50.932;6.780;2023-02-28T03:21:56;2.70;76.00
9984;DHT22;16737;50.932;6.780;2023-02-28T03:24:39;2.70;76.10
9984;DHT22;16737;50.932;6.780;2023-02-28T03:27:16;2.70;75.90
9984;DHT22;16737;50.932;6.780;2023-02-28T03:29:53;2.60;75.90
9984;DHT22;16737;50.932;6.780;2023-02-28T03:32:28;2.60;75.90
9984;DHT22;16737;50.932;6.780;2023-02-28T03:35:02;2.60;75.90
9984;DHT22;16737;50.932;6.780;2023-02-28T03:37:38;2.50;75.80
9984;DHT22;16737;50.932;6.780;2023-02-28T03:40:10;2.50;75.90
9984;DHT22;16737;50.932;6.780;2023-02-28T03:42:44;2.50;75.80
9984;DHT22;16737;50.932;6.780;2023-02-28T03:45:16;2.50;75.90
9984;DHT22;16737;50.932;6.780;2023-02-28T03:47:51;2.40;75.80
9984;DHT22;16737;50.932;6.780;2023-02-28T03:50:22;2.40;75.90
9984;DHT22;16737;50.932;6.780;2023-02-28T03:52:58;2.40;75.90
9984;DHT22;16737;50.932;6.780;2023-02-28T03:55:37;2.30;76.10
9984;DHT22;16737;50.932;6.780;2023-02-28T03:58:16;2.30;76.10
9984;DHT22;16737;50.932;6.780;2023-02-28T04:00:55;2.30;76.20
9984;DHT22;16737;50.932;6.780;2023-02-28T04:03:34;2.20;76.00
9984;DHT22;16737;50.932;6.780;2023-02-28T04:06:02;2.20;76.00
9984;DHT22;16737;50.932;6.780;2023-02-28T04:08:31;2.20;75.90
9984;DHT22;16737;50.932;6.780;2023-02-28T04:11:01;2.10;75.90
9984;DHT22;16737;50.932;6.780;2023-02-28T04:13:33;2.10;76.00
9984;DHT22;16737;50.932;6.780;2023-02-28T04:16:00;2.10;76.00
9984;DHT22;16737;50.932;6.780;2023-02-28T04:18:27;2.10;76.00
9984;DHT22;16737;50.932;6.780;2023-02-28T04:20:54;2.10;76.00
9984;DHT22;16737;50.932;6.780;2023-02-28T04:23:20;2.00;76.10
9984;DHT22;16737;50.932;6.780;2023-02-28T04:25:49;2.00;76.10
9984;DHT22;16737;50.932;6.780;2023-02-28T04:28:16;2.00;76.20
9984;DHT22;16737;50.932;6.780;2023-02-28T04:30:43;2.00;76.20
9984;DHT22;16737;50.932;6.780;2023-02-28T04:33:10;2.00;76.30
9984;DHT22;16737;50.932;6.780;2023-02-28T04:35:37;2.00;76.30
9984;DHT22;16737;50.932;6.780;2023-02-28T04:38:04;2.00;76.40
9984;DHT22;16737;50.932;6.780;2023-02-28T04:40:31;2.00;76.40
9984;DHT22;16737;50.932;6.780;2023-02-28T04:42:59;1.90;76.40
9984;DHT22;16737;50.932;6.780;2023-02-28T04:45:26;1.90;76.40
9984;DHT22;16737;50.932;6.780;2023-02-28T04:47:55;1.90;76.40
9984;DHT22;16737;50.932;6.780;2023-02-28T04:50:22;1.90;76.40
9984;DHT22;16737;50.932;6.780;2023-02-28T04:52:49;1.90;76.40
9984;DHT22;16737;50.932;6.780;2023-02-28T04:55:16;1.90;76.50
9984;DHT22;16737;50.932;6.780;2023-02-28T04:57:43;1.90;76.60
9984;DHT22;16737;50.932;6.780;2023-02-28T05:00:12;1.80;76.50
9984;DHT22;16737;50.932;6.780;2023-02-28T05:02:42;1.80;76.60
9984;DHT22;16737;50.932;6.780;2023-02-28T05:05:09;1.80;76.60
9984;DHT22;16737;50.932;6.780;2023-02-28T05:07:35;1.80;76.60
9984;DHT22;16737;50.932;6.780;2023-02-28T05:10:03;1.80;76.80
9984;DHT22;16737;50.932;6.780;2023-02-28T05:12:31;1.80;76.90
9984;DHT22;16737;50.932;6.780;2023-02-28T05:14:58;1.70;76.80
9984;DHT22;16737;50.932;6.780;2023-02-28T05:17:27;1.70;76.80
9984;DHT22;16737;50.932;6.780;2023-02-28T05:19:55;1.70;76.90
9984;DHT22;16737;50.932;6.780;2023-02-28T05:22:21;1.70;76.90
9984;DHT22;16737;50.932;6.780;2023-02-28T05:24:48;1.70;77.10
9984;DHT22;16737;50.932;6.780;2023-02-28T05:27:15;1.70;77.10
9984;DHT22;16737;50.932;6.780;2023-02-28T05:29:42;1.70;77.20
9984;DHT22;16737;50.932;6.780;2023-02-28T05:32:11;1.70;77.20
9984;DHT22;16737;50.932;6.780;2023-02-28T05:34:40;1.70;77.40
9984;DHT22;16737;50.932;6.780;2023-02-28T05:37:11;1.60;77.30
9984;DHT22;16737;50.932;6.780;2023-02-28T05:39:39;1.60;77.40
9984;DHT22;16737;50.932;6.780;2023-02-28T05:42:06;1.60;77.30
9984;DHT22;16737;50.932;6.780;2023-02-28T05:44:34;1.60;77.40
9984;DHT22;16737;50.932;6.780;2023-02-28T05:47:01;1.60;77.40
9984;DHT22;16737;50.932;6.780;2023-02-28T05:49:29;1.60;77.40
9984;DHT22;16737;50.932;6.780;2023-02-28T05:51:57;1.60;77.40
9984;DHT22;16737;50.932;6.780;2023-02-28T05:54:24;1.50;77.40
9984;DHT22;16737;50.932;6.780;2023-02-28T05:56:51;1.50;77.40
9984;DHT22;16737;50.932;6.780;2023-02-28T05:59:18;1.50;77.40
9984;DHT22;16737;50.932;6.780;2023-02-28T06:01:45;1.50;77.50
9984;DHT22;16737;50.932;6.780;2023-02-28T06:04:15;1.50;77.60
9984;DHT22;16737;50.932;6.780;2023-02-28T06:06:44;1.50;77.60
9984;DHT22;16737;50.932;6.780;2023-02-28T06:09:12;1.50;77.50
9984;DHT22;16737;50.932;6.780;2023-02-28T06:11:40;1.50;77.60
9984;DHT22;16737;50.932;6.780;2023-02-28T06:14:12;1.50;77.60
9984;DHT22;16737;50.932;6.780;2023-02-28T06:16:42;1.50;77.70
9984;DHT22;16737;50.932;6.780;2023-02-28T06:19:10;1.50;77.60
9984;DHT22;16737;50.932;6.780;2023-02-28T06:21:38;1.50;77.70
9984;DHT22;16737;50.932;6.780;2023-02-28T06:24:05;1.50;77.60
9984;DHT22;16737;50.932;6.780;2023-02-28T06:26:34;1.50;77.60
9984;DHT22;16737;50.932;6.780;2023-02-28T06:29:02;1.50;77.70
9984;DHT22;16737;50.932;6.780;2023-02-28T06:31:29;1.60;77.80
9984;DHT22;16737;50.932;6.780;2023-02-28T06:33:56;1.60;77.90
9984;DHT22;16737;50.932;6.780;2023-02-28T06:36:23;1.60;77.90
9984;DHT22;16737;50.932;6.780;2023-02-28T06:38:50;1.60;77.90
9984;DHT22;16737;50.932;6.780;2023-02-28T06:41:21;1.60;77.90
9984;DHT22;16737;50.932;6.780;2023-02-28T06:43:50;1.70;77.90
9984;DHT22;16737;50.932;6.780;2023-02-28T06:46:17;1.70;77.90
9984;DHT22;16737;50.932;6.780;2023-02-28T06:48:45;1.70;77.80
9984;DHT22;16737;50.932;6.780;2023-02-28T06:51:13;1.70;77.70
9984;DHT22;16737;50.932;6.780;2023-02-28T06:53:42;1.80;77.90
9984;DHT22;16737;50.932;6.780;2023-02-28T06:56:11;1.80;77.80
9984;DHT22;16737;50.932;6.780;2023-02-28T06:58:39;1.80;77.80
9984;DHT22;16737;50.932;6.780;2023-02-28T07:01:08;1.90;77.90
9984;DHT22;16737;50.932;6.780;2023-02-28T07:03:35;1.90;77.80
9984;DHT22;16737;50.932;6.780;2023-02-28T07:06:04;1.90;77.70
9984;DHT22;16737;50.932;6.780;2023-02-28T07:08:32;2.00;77.80
9984;DHT22;16737;50.932;6.780;2023-02-28T07:11:00;2.00;77.70
9984;DHT22;16737;50.932;6.780;2023-02-28T07:13:27;2.10;77.70
9984;DHT22;16737;50.932;6.780;2023-02-28T07:15:55;2.10;77.60
9984;DHT22;16737;50.932;6.780;2023-02-28T07:18:24;2.20;77.60
9984;DHT22;16737;50.932;6.780;2023-02-28T07:20:52;2.20;77.60
9984;DHT22;16737;50.932;6.780;2023-02-28T07:23:20;2.30;77.60
9984;DHT22;16737;50.932;6.780;2023-02-28T07:25:48;2.30;77.50
9984;DHT22;16737;50.932;6.780;2023-02-28T07:28:16;2.40;77.60
9984;DHT22;16737;50.932;6.780;2023-02-28T07:30:43;2.40;77.40
9984;DHT22;16737;50.932;6.780;2023-02-28T07:33:10;2.50;77.40
9984;DHT22;16737;50.932;6.780;2023-02-28T07:35:38;2.50;77.20
9984;DHT22;16737;50.932;6.780;2023-02-28T07:38:06;2.60;77.10
9984;DHT22;16737;50.932;6.780;2023-02-28T07:40:35;2.60;76.90
9984;DHT22;16737;50.932;6.780;2023-02-28T07:43:03;2.70;76.90
9984;DHT22;16737;50.932;6.780;2023-02-28T07:45:30;2.80;76.80
9984;DHT22;16737;50.932;6.780;2023-02-28T07:48:00;2.80;76.50
9984;DHT22;16737;50.932;6.780;2023-02-28T07:50:27;2.90;76.50
9984;DHT22;16737;50.932;6.780;2023-02-28T07:52:57;3.00;76.60
9984;DHT22;16737;50.932;6.780;2023-02-28T07:55:24;3.10;76.40
9984;DHT22;16737;50.932;6.780;2023-02-28T07:57:51;3.20;76.10
9984;DHT22;16737;50.932;6.780;2023-02-28T08:00:18;3.20;76.00
9984;DHT22;16737;50.932;6.780;2023-02-28T08:02:46;3.30;76.00
9984;DHT22;16737;50.932;6.780;2023-02-28T08:05:12;3.40;75.70
9984;DHT22;16737;50.932;6.780;2023-02-28T08:07:39;3.50;75.70
9984;DHT22;16737;50.932;6.780;2023-02-28T08:10:09;3.50;75.70
9984;DHT22;16737;50.932;6.780;2023-02-28T08:12:36;3.60;75.50
9984;DHT22;16737;50.932;6.780;2023-02-28T08:15:04;3.70;75.70
9984;DHT22;16737;50.932;6.780;2023-02-28T08:17:31;3.80;75.40
9984;DHT22;16737;50.932;6.780;2023-02-28T08:19:58;3.80;74.90
9984;DHT22;16737;50.932;6.780;2023-02-28T08:22:25;3.90;74.80
9984;DHT22;16737;50.932;6.780;2023-02-28T08:24:52;4.00;74.30
9984;DHT22;16737;50.932;6.780;2023-02-28T08:27:20;4.10;74.10
9984;DHT22;16737;50.932;6.780;2023-02-28T08:29:47;4.10;73.50
9984;DHT22;16737;50.932;6.780;2023-02-28T08:32:14;4.20;73.40
9984;DHT22;16737;50.932;6.780;2023-02-28T08:34:41;4.30;73.50
9984;DHT22;16737;50.932;6.780;2023-02-28T08:37:08;4.30;73.30
9984;DHT22;16737;50.932;6.780;2023-02-28T08:39:36;4.40;72.70
9984;DHT22;16737;50.932;6.780;2023-02-28T08:42:04;4.50;72.90
9984;DHT22;16737;50.932;6.780;2023-02-28T08:44:32;4.60;72.40
9984;DHT22;16737;50.932;6.780;2023-02-28T08:46:59;4.70;72.90
9984;DHT22;16737;50.932;6.780;2023-02-28T08:49:26;4.70;72.30
9984;DHT22;16737;50.932;6.780;2023-02-28T08:51:54;4.80;72.60
9984;DHT22;16737;50.932;6.780;2023-02-28T08:54:22;4.90;71.50
9984;DHT22;16737;50.932;6.780;2023-02-28T08:56:49;5.00;71.30
9984;DHT22;16737;50.932;6.780;2023-02-28T08:59:16;5.10;70.80
9984;DHT22;16737;50.932;6.780;2023-02-28T09:01:45;5.10;71.10
9984;DHT22;16737;50.932;6.780;2023-02-28T09:04:12;5.20;70.90
9984;DHT22;16737;50.932;6.780;2023-02-28T09:06:39;5.30;70.70
9984;DHT22;16737;50.932;6.780;2023-02-28T09:09:06;5.40;70.20
9984;DHT22;16737;50.932;6.780;2023-02-28T09:11:33;5.50;70.10
9984;DHT22;16737;50.932;6.780;2023-02-28T09:14:01;5.60;70.30
9984;DHT22;16737;50.932;6.780;2023-02-28T09:16:29;5.60;70.70
9984;DHT22;16737;50.932;6.780;2023-02-28T09:18:58;5.70;69.20
9984;DHT22;16737;50.932;6.780;2023-02-28T09:21:26;5.80;67.60
9984;DHT22;16737;50.932;6.780;2023-02-28T09:23:53;5.90;67.00
9984;DHT22;16737;50.932;6.780;2023-02-28T09:26:23;6.00;66.30
9984;DHT22;16737;50.932;6.780;2023-02-28T09:28:52;6.10;66.40
9984;DHT22;16737;50.932;6.780;2023-02-28T09:31:22;6.10;65.40
9984;DHT22;16737;50.932;6.780;2023-02-28T09:33:52;6.20;64.90
9984;DHT22;16737;50.932;6.780;2023-02-28T09:36:23;6.30;64.00
9984;DHT22;16737;50.932;6.780;2023-02-28T09:38:50;6.30;64.10
9984;DHT22;16737;50.932;6.780;2023-02-28T09:41:20;6.40;63.60
9984;DHT22;16737;50.932;6.780;2023-02-28T09:43:51;6.40;64.30
9984;DHT22;16737;50.932;6.780;2023-02-28T09:46:28;6.50;64.00
9984;DHT22;16737;50.932;6.780;2023-02-28T09:49:00;6.60;62.40
9984;DHT22;16737;50.932;6.780;2023-02-28T09:51:43;6.60;63.10
9984;DHT22;16737;50.932;6.780;2023-02-28T09:54:16;6.70;63.10
9984;DHT22;16737;50.932;6.780;2023-02-28T09:56:49;6.70;64.70
9984;DHT22;16737;50.932;6.780;2023-02-28T09:59:36;6.80;63.20
9984;DHT22;16737;50.932;6.780;2023-02-28T10:02:21;6.90;61.20
9984;DHT22;16737;50.932;6.780;2023-02-28T10:05:07;6.90;61.50
9984;DHT22;16737;50.932;6.780;2023-02-28T10:07:50;7.00;61.80
9984;DHT22;16737;50.932;6.780;2023-02-28T10:10:28;7.00;61.60
9984;DHT22;16737;50.932;6.780;2023-02-28T10:13:05;7.10;62.80
9984;DHT22;16737;50.932;6.780;2023-02-28T10:15:45;7.20;62.50
9984;DHT22;16737;50.932;6.780;2023-02-28T10:18:18;7.20;62.70
9984;DHT22;16737;50.932;6.780;2023-02-28T10:20:49;7.30;62.60
9984;DHT22;16737;50.932;6.780;2023-02-28T10:23:21;7.40;62.50
9984;DHT22;16737;50.932;6.780;2023-02-28T10:25:55;7.50;61.50
9984;DHT22;16737;50.932;6.780;2023-02-28T10:28:25;7.50;61.80
9984;DHT22;16737;50.932;6.780;2023-02-28T10:30:59;7.60;62.60
9984;DHT22;16737;50.932;6.780;2023-02-28T10:33:29;7.60;63.20
9984;DHT22;16737;50.932;6.780;2023-02-28T10:36:00;7.70;62.50
9984;DHT22;16737;50.932;6.780;2023-02-28T10:38:33;7.70;63.20
9984;DHT22;16737;50.932;6.780;2023-02-28T10:41:06;7.80;62.20
9984;DHT22;16737;50.932;6.780;2023-02-28T10:43:34;7.90;61.90
9984;DHT22;16737;50.932;6.780;2023-02-28T10:46:09;7.90;61.20
9984;DHT22;16737;50.932;6.780;2023-02-28T10:48:42;8.00;61.00
9984;DHT22;16737;50.932;6.780;2023-02-28T10:51:15;8.00;61.70
9984;DHT22;16737;50.932;6.780;2023-02-28T10:53:50;8.10;63.00
9984;DHT22;16737;50.932;6.780;2023-02-28T10:56:20;8.20;61.80
9984;DHT22;16737;50.932;6.780;2023-02-28T10:58:51;8.30;61.20
9984;DHT22;16737;50.932;6.780;2023-02-28T11:01:22;8.30;61.30
9984;DHT22;16737;50.932;6.780;2023-02-28T11:03:51;8.30;61.10
9984;DHT22;16737;50.932;6.780;2023-02-28T11:06:20;8.40;61.60
9984;DHT22;16737;50.932;6.780;2023-02-28T11:08:52;8.40;60.70
9984;DHT22;16737;50.932;6.780;2023-02-28T11:11:23;8.40;60.00
9984;DHT22;16737;50.932;6.780;2023-02-28T11:13:54;8.50;60.20
9984;DHT22;16737;50.932;6.780;2023-02-28T11:16:32;8.50;61.00
9984;DHT22;16737;50.932;6.780;2023-02-28T11:19:02;8.50;60.90
9984;DHT22;16737;50.932;6.780;2023-02-28T11:21:34;8.50;61.20
9984;DHT22;16737;50.932;6.780;2023-02-28T11:24:15;8.60;61.20
9984;DHT22;16737;50.932;6.780;2023-02-28T11:26:49;8.60;59.90
9984;DHT22;16737;50.932;6.780;2023-02-28T11:29:20;8.70;60.70
9984;DHT22;16737;50.932;6.780;2023-02-28T11:32:11;8.70;61.20
9984;DHT22;16737;50.932;6.780;2023-02-28T11:34:43;8.80;61.00
9984;DHT22;16737;50.932;6.780;2023-02-28T11:37:12;8.80;62.00
9984;DHT22;16737;50.932;6.780;2023-02-28T11:39:42;8.90;60.10
9984;DHT22;16737;50.932;6.780;2023-02-28T11:42:30;8.90;60.20
9984;DHT22;16737;50.932;6.780;2023-02-28T11:45:17;8.90;58.80
9984;DHT22;16737;50.932;6.780;2023-02-28T11:47:55;8.90;59.40
9984;DHT22;16737;50.932;6.780;2023-02-28T11:50:45;8.90;59.70
9984;DHT22;16737;50.932;6.780;2023-02-28T11:53:24;8.90;59.90
9984;DHT22;16737;50.932;6.780;2023-02-28T11:56:10;8.90;61.00
9984;DHT22;16737;50.932;6.780;2023-02-28T11:58:50;9.00;60.70
9984;DHT22;16737;50.932;6.780;2023-02-28T12:01:33;9.10;59.70
9984;DHT22;16737;50.932;6.780;2023-02-28T12:04:17;9.10;59.70
9984;DHT22;16737;50.932;6.780;2023-02-28T12:06:57;9.10;58.80
9984;DHT22;16737;50.932;6.780;2023-02-28T12:09:43;9.20;59.10
9984;DHT22;16737;50.932;6.780;2023-02-28T12:12:25;9.20;58.50
9984;DHT22;16737;50.932;6.780;2023-02-28T12:15:23;9.20;58.30
9984;DHT22;16737;50.932;6.780;2023-02-28T12:18:27;9.10;58.30
9984;DHT22;16737;50.932;6.780;2023-02-28T12:21:10;9.10;58.50
9984;DHT22;16737;50.932;6.780;2023-02-28T12:24:01;9.20;58.80
9984;DHT22;16737;50.932;6.780;2023-02-28T12:26:44;9.10;58.60
9984;DHT22;16737;50.932;6.780;2023-02-28T12:29:17;9.10;58.50
9984;DHT22;16737;50.932;6.780;2023-02-28T12:31:52;9.10;59.10
9984;DHT22;16737;50.932;6.780;2023-02-28T12:34:26;9.10;58.90
9984;DHT22;16737;50.932;6.780;2023-02-28T12:37:01;9.10;58.20
9984;DHT22;16737;50.932;6.780;2023-02-28T12:39:36;9.10;58.20
9984;DHT22;16737;50.932;6.780;2023-02-28T12:42:12;9.10;57.80
9984;DHT22;16737;50.932;6.780;2023-02-28T12:44:58;9.10;58.60
9984;DHT22;16737;50.932;6.780;2023-02-28T12:47:28;9.10;58.30
9984;DHT22;16737;50.932;6.780;2023-02-28T12:49:59;9.10;58.20
9984;DHT22;16737;50.932;6.780;2023-02-28T12:52:37;9.10;58.10
9984;DHT22;16737;50.932;6.780;2023-02-28T12:55:17;9.20;58.20
9984;DHT22;16737;50.932;6.780;2023-02-28T12:57:56;9.20;58.50
9984;DHT22;16737;50.932;6.780;2023-02-28T13:00:34;9.20;58.60
9984;DHT22;16737;50.932;6.780;2023-02-28T13:03:24;9.10;57.90
9984;DHT22;16737;50.932;6.780;2023-02-28T13:06:28;9.10;57.20
9984;DHT22;16737;50.932;6.780;2023-02-28T13:09:12;9.10;57.40
9984;DHT22;16737;50.932;6.780;2023-02-28T13:11:43;9.10;58.60
9984;DHT22;16737;50.932;6.780;2023-02-28T13:14:23;9.20;59.40
9984;DHT22;16737;50.932;6.780;2023-02-28T13:17:03;9.20;58.60
9984;DHT22;16737;50.932;6.780;2023-02-28T13:19:40;9.30;58.30
9984;DHT22;16737;50.932;6.780;2023-02-28T13:22:17;9.30;58.40
9984;DHT22;16737;50.932;6.780;2023-02-28T13:24:48;9.40;58.10
9984;DHT22;16737;50.932;6.780;2023-02-28T13:27:32;9.50;59.20
9984;DHT22;16737;50.932;6.780;2023-02-28T13:33:31;9.60;58.60
9984;DHT22;16737;50.932;6.780;2023-02-28T13:36:25;9.70;59.40
9984;DHT22;16737;50.932;6.780;2023-02-28T13:38:55;9.80;58.00
9984;DHT22;16737;50.932;6.780;2023-02-28T13:41:45;9.80;57.50
9984;DHT22;16737;50.932;6.780;2023-02-28T13:44:16;9.90;57.20
9984;DHT22;16737;50.932;6.780;2023-02-28T13:47:23;9.90;58.10
9984;DHT22;16737;50.932;6.780;2023-02-28T13:50:14;9.90;57.40
9984;DHT22;16737;50.932;6.780;2023-02-28T13:52:54;10.00;56.60
9984;DHT22;16737;50.932;6.780;2023-02-28T13:55:34;10.00;57.00
9984;DHT22;16737;50.932;6.780;2023-02-28T13:58:16;10.00;57.00
9984;DHT22;16737;50.932;6.780;2023-02-28T14:01:05;10.00;57.50
9984;DHT22;16737;50.932;6.780;2023-02-28T14:04:16;10.00;56.30
9984;DHT22;16737;50.932;6.780;2023-02-28T14:07:19;10.10;56.60
9984;DHT22;16737;50.932;6.780;2023-02-28T14:09:58;10.10;56.80
9984;DHT22;16737;50.932;6.780;2023-02-28T14:13:02;10.10;56.70
9984;DHT22;16737;50.932;6.780;2023-02-28T14:15:44;10.20;57.10
9984;DHT22;16737;50.932;6.780;2023-02-28T14:18:29;10.20;57.30
9984;DHT22;16737;50.932;6.780;2023-02-28T14:21:02;10.20;57.00
9984;DHT22;16737;50.932;6.780;2023-02-28T14:24:10;10.30;57.20
9984;DHT22;16737;50.932;6.780;2023-02-28T14:27:05;10.30;56.90
9984;DHT22;16737;50.932;6.780;2023-02-28T14:30:17;10.30;56.40
9984;DHT22;16737;50.932;6.780;2023-02-28T14:33:22;10.30;56.50
9984;DHT22;16737;50.932;6.780;2023-02-28T14:36:12;10.30;57.10
9984;DHT22;16737;50.932;6.780;2023-02-28T14:38:48;10.30;57.20
9984;DHT22;16737;50.932;6.780;2023-02-28T14:41:30;10.40;57.50
9984;DHT22;16737;50.932;6.780;2023-02-28T14:44:01;10.30;56.70
9984;DHT22;16737;50.932;6.780;2023-02-28T14:46:37;10.30;57.20
9984;DHT22;16737;50.932;6.780;2023-02-28T14:49:17;10.40;56.40
9984;DHT22;16737;50.932;6.780;2023-02-28T14:51:46;10.40;56.60
9984;DHT22;16737;50.932;6.780;2023-02-28T14:54:25;10.30;56.70
9984;DHT22;16737;50.932;6.780;2023-02-28T14:56:52;10.30;55.90
9984;DHT22;16737;50.932;6.780;2023-02-28T14:59:28;10.30;56.20
9984;DHT22;16737;50.932;6.780;2023-02-28T15:02:17;10.30;55.50
9984;DHT22;16737;50.932;6.780;2023-02-28T15:04:53;10.30;55.60
9984;DHT22;16737;50.932;6.780;2023-02-28T15:07:22;10.20;56.30
9984;DHT22;16737;50.932;6.780;2023-02-28T15:10:09;10.20;56.40
9984;DHT22;16737;50.932;6.780;2023-02-28T15:12:47;10.20;56.00
9984;DHT22;16737;50.932;6.780;2023-02-28T15:15:19;10.20;55.40
9984;DHT22;16737;50.932;6.780;2023-02-28T15:17:50;10.10;56.00
9984;DHT22;16737;50.932;6.780;2023-02-28T15:20:20;10.10;56.10
9984;DHT22;16737;50.932;6.780;2023-02-28T15:22:50;10.00;56.20
9984;DHT22;16737;50.932;6.780;2023-02-28T15:25:21;10.00;56.30
9984;DHT22;16737;50.932;6.780;2023-02-28T15:27:50;10.00;56.30
9984;DHT22;16737;50.932;6.780;2023-02-28T15:30:21;10.00;56.10
9984;DHT22;16737;50.932;6.780;2023-02-28T15:33:17;10.00;55.70
9984;DHT22;16737;50.932;6.780;2023-02-28T15:35:47;10.00;55.40
9984;DHT22;16737;50.932;6.780;2023-02-28T15:38:18;9.90;57.00
9984;DHT22;16737;50.932;6.780;2023-02-28T15:40:52;9.90;56.90
9984;DHT22;16737;50.932;6.780;2023-02-28T15:43:26;9.90;57.20
9984;DHT22;16737;50.932;6.780;2023-02-28T15:45:58;9.90;57.30
9984;DHT22;16737;50.932;6.780;2023-02-28T15:48:29;9.90;57.30
9984;DHT22;16737;50.932;6.780;2023-02-28T15:51:02;9.80;57.20
9984;DHT22;16737;50.932;6.780;2023-02-28T15:53:36;9.90;56.70
9984;DHT22;16737;50.932;6.780;2023-02-28T15:56:20;9.90;56.20
9984;DHT22;16737;50.932;6.780;2023-02-28T15:58:53;9.80;55.90
9984;DHT22;16737;50.932;6.780;2023-02-28T16:01:25;9.70;56.20
9984;DHT22;16737;50.932;6.780;2023-02-28T16:03:57;9.70;56.20
9984;DHT22;16737;50.932;6.780;2023-02-28T16:06:33;9.70;56.40
9984;DHT22;16737;50.932;6.780;2023-02-28T16:09:04;9.60;56.30
9984;DHT22;16737;50.932;6.780;2023-02-28T16:11:38;9.60;56.30
9984;DHT22;16737;50.932;6.780;2023-02-28T16:14:12;9.60;56.60
9984;DHT22;16737;50.932;6.780;2023-02-28T16:16:43;9.60;57.00
9984;DHT22;16737;50.932;6.780;2023-02-28T16:19:12;9.60;57.20
9984;DHT22;16737;50.932;6.780;2023-02-28T16:21:39;9.50;57.00
9984;DHT22;16737;50.932;6.780;2023-02-28T16:24:06;9.50;56.90
9984;DHT22;16737;50.932;6.780;2023-02-28T16:26:36;9.50;56.90
9984;DHT22;16737;50.932;6.780;2023-02-28T16:29:05;9.40;56.60
9984;DHT22;16737;50.932;6.780;2023-02-28T16:31:36;9.40;56.80
9984;DHT22;16737;50.932;6.780;2023-02-28T16:34:04;9.40;56.80
9984;DHT22;16737;50.932;6.780;2023-02-28T16:36:31;9.40;57.10
9984;DHT22;16737;50.932;6.780;2023-02-28T16:38:58;9.30;57.00
9984;DHT22;16737;50.932;6.780;2023-02-28T16:41:28;9.30;57.00
9984;DHT22;16737;50.932;6.780;2023-02-28T16:43:58;9.20;56.60
9984;DHT22;16737;50.932;6.780;2023-02-28T16:46:30;9.20;56.60
9984;DHT22;16737;50.932;6.780;2023-02-28T16:49:00;9.20;56.70